Time;durP1;ratioP1;P1;durP2;ratioP2;P2;SDS_P1;SDS_P2;PMS_P1;PMS_P2;Temp;Humidity;BMP_temperature;BMP_pressure;BME280_temperature;BME280_humidity;BME280_pressure;Samples;Min_cycle;Max_cycle;Signal;HPM_P1;HPM_P2
2024/04/20 00:00:41;;;;;;;5.05;2.90;;;;;;;10.80;44.75;99917.00;5531855;25;20033;-78
2024/04/20 00:03:33;;;;;;;4.20;2.57;;;;;;;10.90;45.07;99911.16;5525989;25;20029;-79
2024/04/20 00:06:28;;;;;;;5.22;3.38;;;;;;;10.60;45.65;99909.69;5524050;25;20373;-78
2024/04/20 00:09:22;;;;;;;4.30;2.53;;;;;;;10.84;45.53;99911.69;5532816;25;20040;-78
2024/04/20 00:12:15;;;;;;;7.55;2.97;;;;;;;10.75;46.44;99916.44;5507413;26;20030;-78
2024/04/20 00:15:10;;;;;;;6.43;3.05;;;;;;;10.83;45.71;99912.81;5547459;25;20048;-78
2024/04/20 00:18:03;;;;;;;3.83;2.70;;;;;;;10.54;46.61;99920.00;5558023;25;20377;-78
2024/04/20 00:20:55;;;;;;;4.72;2.88;;;;;;;10.19;46.88;99919.50;5532772;26;20005;-80
2024/04/20 00:23:50;;;;;;;7.53;3.20;;;;;;;9.99;47.68;99925.69;5490559;26;20029;-80
2024/04/20 00:26:42;;;;;;;6.28;2.88;;;;;;;10.37;47.28;99913.91;5502942;25;20056;-80
2024/04/20 00:29:37;;;;;;;8.75;3.08;;;;;;;10.32;47.40;99908.66;5550024;25;20032;-80
2024/04/20 00:32:31;;;;;;;5.97;3.78;;;;;;;10.07;47.99;99894.16;5563539;25;20028;-79
2024/04/20 00:35:23;;;;;;;6.30;3.47;;;;;;;10.13;48.14;99890.91;5549284;25;20373;-78
2024/04/20 00:38:18;;;;;;;4.82;2.08;;;;;;;10.05;48.70;99893.69;5561624;25;20020;-80
2024/04/20 00:41:10;;;;;;;5.97;2.43;;;;;;;10.03;48.85;99894.03;5530154;25;20033;-79
2024/04/20 00:44:05;;;;;;;10.80;3.58;;;;;;;9.98;49.08;99896.94;5522988;25;20493;-80
2024/04/20 00:47:01;;;;;;;9.18;4.95;;;;;;;9.65;49.83;99885.19;5556149;25;20029;-79
2024/04/20 00:49:56;;;;;;;5.93;3.08;;;;;;;9.50;50.65;99886.53;5525683;25;20025;-80
2024/04/20 00:52:51;;;;;;;5.97;3.35;;;;;;;9.61;51.14;99876.09;5486354;26;20029;-79
2024/04/20 00:55:45;;;;;;;9.48;3.47;;;;;;;9.70;50.71;99864.06;5508993;25;20068;-80
2024/04/20 00:58:40;;;;;;;5.17;3.20;;;;;;;9.84;50.11;99861.09;5557192;25;20029;-80
2024/04/20 01:01:34;;;;;;;6.18;3.63;;;;;;;9.90;50.39;99862.50;5549154;25;20277;-79
2024/04/20 01:04:29;;;;;;;6.47;4.03;;;;;;;9.88;50.53;99856.59;5529517;25;20029;-79
2024/04/20 01:07:21;;;;;;;5.93;3.55;;;;;;;9.89;50.78;99839.19;5550940;25;20276;-78
2024/04/20 01:10:16;;;;;;;4.35;3.20;;;;;;;9.82;51.01;99842.41;5524252;26;20835;-80
2024/04/20 01:13:10;;;;;;;9.73;3.67;;;;;;;9.81;51.02;99838.09;5522183;26;20040;-78
2024/04/20 01:16:05;;;;;;;9.15;3.85;;;;;;;9.78;51.38;99833.34;5524235;26;20029;-78
2024/04/20 01:19:00;;;;;;;5.65;3.70;;;;;;;9.73;51.84;99835.47;5522159;26;20029;-78
2024/04/20 01:21:54;;;;;;;6.75;3.83;;;;;;;9.71;51.63;99837.72;5521366;26;20049;-79
2024/04/20 01:24:50;;;;;;;10.00;4.50;;;;;;;9.75;51.86;99842.16;5523976;26;20378;-78
2024/04/20 01:27:44;;;;;;;8.75;4.22;;;;;;;9.82;51.69;99836.19;5522072;26;20277;-78
2024/04/20 01:30:39;;;;;;;3.83;2.80;;;;;;;9.98;51.59;99845.34;5523449;26;20033;-79
2024/04/20 01:33:34;;;;;;;6.28;4.30;;;;;;;10.06;51.28;99847.16;5521094;26;20029;-78
2024/04/20 01:36:29;;;;;;;8.30;3.97;;;;;;;9.90;51.57;99845.41;5521483;26;20385;-78
2024/04/20 01:39:21;;;;;;;6.80;3.60;;;;;;;9.21;52.63;99857.50;5521434;26;20486;-78
2024/04/20 01:42:13;;;;;;;5.88;3.80;;;;;;;8.76;53.94;99857.22;5520725;26;20025;-78
2024/04/20 01:45:05;;;;;;;13.30;5.72;;;;;;;8.60;55.25;99864.25;5522705;26;20494;-78
2024/04/20 01:47:57;;;;;;;10.38;5.35;;;;;;;8.56;54.97;99871.44;5522904;26;20029;-78
2024/04/20 01:50:52;;;;;;;9.35;4.93;;;;;;;8.94;53.87;99871.47;5521140;26;20034;-78
2024/04/20 01:53:46;;;;;;;8.70;4.37;;;;;;;8.77;54.62;99871.56;5520463;26;20025;-78
2024/04/20 01:56:41;;;;;;;12.63;5.57;;;;;;;8.90;53.46;99871.34;5522643;26;20116;-78
2024/04/20 01:59:36;;;;;;;10.40;6.37;;;;;;;9.13;53.12;99860.25;5522240;26;20385;-78
2024/04/20 02:02:26;;;;;;;11.83;6.07;;;;;;;9.11;53.13;99866.00;5524145;26;20269;-78
2024/04/20 02:05:20;;;;;;;6.60;3.85;;;;;;;9.05;53.86;99864.59;5524572;26;20025;-77
2024/04/20 02:08:15;;;;;;;5.93;3.42;;;;;;;8.92;53.73;99862.91;5525072;26;20033;-77
2024/04/20 02:11:10;;;;;;;4.33;2.80;;;;;;;8.76;53.64;99864.53;5524978;26;20385;-77
2024/04/20 02:14:05;;;;;;;13.10;3.53;;;;;;;8.80;54.25;99858.16;5524190;26;20029;-78
2024/04/20 02:16:59;;;;;;;11.18;4.32;;;;;;;8.82;54.40;99865.97;5524389;26;20273;-78
2024/04/20 02:19:57;;;;;;;6.50;3.63;;;;;;;8.65;54.57;99863.28;5524457;26;20021;-77
2024/04/20 02:22:52;;;;;;;9.57;3.80;;;;;;;8.73;53.58;99857.06;5523473;26;20041;-77
2024/04/20 02:25:44;;;;;;;5.03;3.33;;;;;;;8.77;53.20;99871.56;5524330;26;20036;-78
2024/04/20 02:28:38;;;;;;;6.63;3.15;;;;;;;8.47;54.11;99876.09;5526066;26;20514;-78
2024/04/20 02:31:30;;;;;;;12.95;3.78;;;;;;;8.26;54.65;99872.41;5541258;26;20474;-79
2024/04/20 02:34:25;;;;;;;9.32;3.88;;;;;;;8.19;54.89;99870.19;5501060;26;20041;-78
2024/04/20 02:37:19;;;;;;;3.30;2.13;;;;;;;8.40;53.83;99860.31;5526592;26;20025;-77
2024/04/20 02:40:14;;;;;;;5.33;3.80;;;;;;;8.47;53.13;99865.25;5526468;26;20025;-78
2024/04/20 02:43:09;;;;;;;7.13;2.30;;;;;;;8.31;53.35;99873.09;5524696;26;20783;-77
2024/04/20 02:46:04;;;;;;;3.27;2.27;;;;;;;7.97;54.50;99862.25;5524810;26;20025;-77
2024/04/20 02:48:58;;;;;;;7.75;3.47;;;;;;;8.52;53.95;99857.75;5525112;26;20378;-77
2024/04/20 02:51:52;;;;;;;5.10;2.95;;;;;;;8.24;54.06;99847.56;5525761;26;20025;-77
2024/04/20 02:54:47;;;;;;;9.98;4.28;;;;;;;8.36;54.07;99853.97;5498886;26;20041;-77
2024/04/20 02:57:42;;;;;;;3.78;3.00;;;;;;;8.38;53.81;99857.13;5498999;26;20037;-77
2024/04/20 03:00:36;;;;;;;5.80;3.13;;;;;;;8.18;54.02;99860.47;5524195;26;20376;-77
2024/04/20 03:03:30;;;;;;;4.70;3.13;;;;;;;8.15;54.11;99858.41;5498116;26;20262;-77
2024/04/20 03:06:26;;;;;;;7.40;3.97;;;;;;;7.99;54.53;99849.97;5523655;26;20029;-77
2024/04/20 03:09:20;;;;;;;8.48;3.00;;;;;;;8.07;54.52;99842.97;5525507;26;20034;-77
2024/04/20 03:12:15;;;;;;;7.22;3.70;;;;;;;8.08;54.55;99847.25;5524795;26;20374;-78
2024/04/20 03:15:10;;;;;;;5.18;3.25;;;;;;;8.10;54.58;99832.28;5488593;26;20034;-77
2024/04/20 03:18:02;;;;;;;3.65;2.40;;;;;;;8.19;54.22;99834.97;5487162;26;20021;-77
2024/04/20 03:20:57;;;;;;;5.93;3.38;;;;;;;8.25;54.07;99833.72;5508213;25;20029;-78
2024/04/20 03:23:51;;;;;;;4.32;3.03;;;;;;;8.28;54.23;99843.88;5486042;26;20710;-77
2024/04/20 03:26:46;;;;;;;4.95;3.30;;;;;;;8.50;53.46;99848.34;5461617;26;20491;-78
2024/04/20 03:29:41;;;;;;;5.60;3.47;;;;;;;8.28;54.46;99833.06;5486752;26;20041;-78
2024/04/20 03:32:36;;;;;;;2.92;2.10;;;;;;;8.47;54.22;99830.03;5485872;26;20640;-78
2024/04/20 03:35:31;;;;;;;4.77;2.53;;;;;;;8.67;54.40;99836.66;5487830;26;20033;-77
2024/04/20 03:38:25;;;;;;;5.37;2.70;;;;;;;8.39;55.45;99831.63;5461124;26;20479;-78
2024/04/20 03:41:18;;;;;;;3.65;2.58;;;;;;;8.15;56.29;99844.88;5460646;26;20026;-78
2024/04/20 03:44:10;;;;;;;7.43;2.70;;;;;;;8.35;55.78;99840.72;5487278;26;20037;-77
2024/04/20 03:46:59;;;;;;;5.68;3.25;;;;;;;8.04;56.22;99838.19;5461251;26;20034;-78
2024/04/20 03:49:54;;;;;;;11.40;3.22;;;;;;;7.96;56.71;99828.16;5486274;26;20025;-78
2024/04/20 03:52:52;;;;;;;4.82;3.10;;;;;;;7.89;56.81;99827.84;5514612;26;20440;-78
2024/04/20 03:55:44;;;;;;;3.38;3.03;;;;;;;8.08;56.46;99831.00;5523827;26;20056;-80
2024/04/20 03:58:44;;;;;;;5.90;3.35;;;;;;;8.11;55.74;99838.50;5542083;26;19994;-80
2024/04/20 04:01:33;;;;;;;5.73;3.43;;;;;;;8.19;55.46;99840.41;5528769;26;20028;-80
2024/04/20 04:04:26;;;;;;;9.90;3.60;;;;;;;7.84;55.63;99844.25;5528658;26;20013;-81
2024/04/20 04:07:18;;;;;;;6.43;3.08;;;;;;;7.38;57.25;99852.94;5529486;26;20478;-81
2024/04/20 04:10:12;;;;;;;9.13;3.22;;;;;;;7.37;57.17;99856.75;5528020;26;20022;-83
2024/04/20 04:13:04;;;;;;;4.78;3.42;;;;;;;7.10;57.63;99853.19;5527096;25;20030;-82
2024/04/20 04:15:59;;;;;;;4.18;3.38;;;;;;;7.33;57.95;99878.22;5527669;26;20026;-80
2024/04/20 04:18:54;;;;;;;4.97;2.20;;;;;;;7.37;57.13;99881.88;5525652;25;20029;-82
2024/04/20 04:21:48;;;;;;;6.77;2.90;;;;;;;7.43;56.89;99875.22;5495146;25;20037;-82
2024/04/20 04:24:43;;;;;;;7.23;3.57;;;;;;;7.37;57.74;99897.31;5525828;26;20045;-82
2024/04/20 04:27:38;;;;;;;28.50;6.17;;;;;;;7.62;57.25;99883.03;5527304;25;20382;-80
2024/04/20 04:30:32;;;;;;;13.00;4.03;;;;;;;7.76;57.40;99897.25;5524834;25;20025;-80
2024/04/20 04:33:24;;;;;;;5.10;3.55;;;;;;;7.96;56.66;99898.56;5525397;25;20026;-80
2024/04/20 04:36:16;;;;;;;6.88;3.10;;;;;;;8.09;56.71;99903.81;5523162;25;20025;-80
2024/04/20 04:39:11;;;;;;;5.47;3.30;;;;;;;8.25;56.28;99917.66;5516075;25;20393;-78
2024/04/20 04:42:03;;;;;;;4.77;3.10;;;;;;;8.18;56.43;99922.75;5523736;25;20041;-80
2024/04/20 04:44:55;;;;;;;5.97;3.88;;;;;;;7.70;57.00;99926.38;5498836;25;20026;-80
2024/04/20 04:47:50;;;;;;;8.38;3.70;;;;;;;7.47;58.42;99916.75;5503273;26;20600;-80
2024/04/20 04:50:45;;;;;;;7.77;4.40;;;;;;;7.37;58.95;99917.03;5494721;25;20042;-80
2024/04/20 04:53:39;;;;;;;10.43;4.67;;;;;;;7.64;58.80;99935.75;5517083;25;20033;-80
2024/04/20 04:56:30;;;;;;;8.53;4.10;;;;;;;7.82;58.87;99936.59;5523150;26;20491;-82
2024/04/20 04:59:22;;;;;;;6.25;4.32;;;;;;;8.10;58.57;99942.50;5527390;25;20386;-80
2024/04/20 05:02:17;;;;;;;5.70;3.53;;;;;;;8.17;58.46;99926.59;5511033;25;20034;-80
2024/04/20 05:05:11;;;;;;;8.20;4.05;;;;;;;8.24;58.05;99935.03;5461887;26;20044;-81
2024/04/20 05:08:03;;;;;;;7.93;4.38;;;;;;;8.07;58.26;99937.75;5486635;26;20030;-80
2024/04/20 05:10:58;;;;;;;10.50;5.20;;;;;;;8.25;57.78;99936.63;5486703;26;20030;-80
2024/04/20 05:13:53;;;;;;;6.35;3.70;;;;;;;8.03;58.91;99942.97;5460437;26;20034;-80
2024/04/20 05:16:48;;;;;;;10.17;3.63;;;;;;;7.95;59.19;99930.22;5487146;26;20038;-81
2024/04/20 05:19:42;;;;;;;9.93;3.72;;;;;;;7.90;59.74;99935.00;5487138;26;20274;-81
2024/04/20 05:22:37;;;;;;;6.80;3.60;;;;;;;8.03;59.25;99929.44;5459501;26;20026;-80
2024/04/20 05:25:32;;;;;;;8.20;4.80;;;;;;;7.85;59.56;99943.28;5487063;26;20029;-81
2024/04/20 05:28:32;;;;;;;10.48;6.50;;;;;;;7.79;60.48;99963.47;5461398;26;20029;-81
2024/04/20 05:31:27;;;;;;;6.30;3.60;;;;;;;7.91;60.95;99959.06;5495234;25;20034;-80
2024/04/20 05:34:21;;;;;;;12.73;5.33;;;;;;;8.38;60.38;99962.78;5509751;25;20036;-79
2024/04/20 05:37:16;;;;;;;7.18;4.88;;;;;;;8.73;59.41;99960.06;5501106;25;20029;-81
2024/04/20 05:40:12;;;;;;;8.43;5.18;;;;;;;8.78;59.25;99951.75;5516206;25;20036;-80
2024/04/20 05:43:04;;;;;;;;;;;;;;;8.97;59.13;99971.19;5526710;25;20033;-80
2024/04/20 05:45:58;;;;;;;5.18;4.40;;;;;;;9.04;59.42;99949.00;5516683;25;19959;-80
2024/04/20 05:48:53;;;;;;;7.60;5.13;;;;;;;9.33;58.17;99963.41;5516547;25;20037;-80
2024/04/20 05:51:48;;;;;;;7.20;5.18;;;;;;;9.64;56.78;99965.84;5521297;25;20279;-80
2024/04/20 05:54:39;;;;;;;6.57;3.45;;;;;;;9.84;55.33;99958.84;5503087;26;20041;-81
2024/04/20 05:57:34;;;;;;;27.52;8.48;;;;;;;9.90;52.96;99964.91;5500547;25;20057;-80
2024/04/20 06:00:29;;;;;;;7.50;4.17;;;;;;;10.02;52.23;99968.47;5500069;25;20034;-80
2024/04/20 06:03:21;;;;;;;6.65;2.95;;;;;;;10.19;52.53;99968.41;5500487;25;20033;-80
2024/04/20 06:06:16;;;;;;;6.28;3.90;;;;;;;9.99;55.40;99981.94;5507996;25;20017;-80
2024/04/20 06:09:08;;;;;;;4.75;3.80;;;;;;;10.11;55.44;99980.06;5505900;25;20030;-80
2024/04/20 06:12:07;;;;;;;16.70;4.50;;;;;;;10.29;53.19;99976.16;5513505;25;20018;-82
2024/04/20 06:14:55;;;;;;;6.88;4.43;;;;;;;10.40;53.73;99981.19;5491964;25;20495;-81
2024/04/20 06:17:50;;;;;;;5.63;3.95;;;;;;;10.37;53.70;99981.84;5540092;25;20025;-81
2024/04/20 06:20:45;;;;;;;8.63;4.82;;;;;;;10.34;54.43;99990.66;5539658;25;20393;-81
2024/04/20 06:23:34;;;;;;;5.97;4.17;;;;;;;10.28;55.44;99998.22;5539877;25;20029;-81
2024/04/20 06:26:29;;;;;;;8.30;3.67;;;;;;;10.20;54.95;100005.31;5523881;26;20274;-82
2024/04/20 06:29:26;;;;;;;8.13;4.53;;;;;;;10.20;56.53;99993.66;5526254;26;20378;-81
2024/04/20 06:32:18;;;;;;;15.23;4.53;;;;;;;10.17;57.39;99995.09;5505370;25;20371;-81
2024/04/20 06:35:12;;;;;;;10.63;4.75;;;;;;;10.07;57.36;99992.72;5500779;25;20390;-82
2024/04/20 06:38:07;;;;;;;17.50;4.93;;;;;;;10.16;58.17;100001.66;5500194;26;20029;-80
2024/04/20 06:41:05;;;;;;;12.23;4.38;;;;;;;10.20;57.58;100010.75;5522087;25;20037;-81
2024/04/20 06:43:59;;;;;;;14.20;4.82;;;;;;;10.17;57.87;100008.69;5519049;25;20037;-80
2024/04/20 06:46:55;;;;;;;7.63;4.50;;;;;;;10.25;56.71;100009.75;5495748;26;20029;-82
2024/04/20 06:49:52;;;;;;;13.07;5.80;;;;;;;10.36;56.28;100010.16;5493893;26;20025;-81
2024/04/20 06:52:44;;;;;;;8.20;4.43;;;;;;;10.43;55.50;99997.63;5497424;26;20033;-80
2024/04/20 06:55:41;;;;;;;8.85;4.13;;;;;;;10.48;55.07;100007.50;5489510;26;20030;-79
2024/04/20 06:58:39;;;;;;;13.10;4.28;;;;;;;10.57;52.98;100003.59;5488352;26;20030;-80
2024/04/20 07:01:31;;;;;;;22.85;5.80;;;;;;;10.62;53.67;100019.69;5488410;26;20038;-80
2024/04/20 07:04:20;;;;;;;11.20;5.22;;;;;;;10.85;53.65;100017.44;5471322;26;20649;-79
2024/04/20 07:07:15;;;;;;;16.42;5.53;;;;;;;10.96;54.15;100029.50;5487377;26;20018;-80
2024/04/20 07:10:04;;;;;;;15.00;4.20;;;;;;;10.92;54.10;100034.00;5524377;25;20046;-79
2024/04/20 07:12:57;;;;;;;19.42;4.53;;;;;;;11.07;53.31;100025.19;5547635;25;20021;-80
2024/04/20 07:15:57;;;;;;;4.70;3.80;;;;;;;11.28;53.01;100033.31;5528049;25;20029;-82
2024/04/20 07:18:52;;;;;;;10.30;4.28;;;;;;;11.56;51.83;100041.69;5516569;25;20034;-82
2024/04/20 07:21:47;;;;;;;5.47;3.92;;;;;;;11.74;51.11;100053.97;5549155;25;20517;-82
2024/04/20 07:24:45;;;;;;;17.77;4.57;;;;;;;12.10;49.98;100052.41;5537320;25;20028;-82
2024/04/20 07:27:37;;;;;;;8.50;3.78;;;;;;;12.22;49.82;100036.03;5563290;25;20377;-81
2024/04/20 07:30:31;;;;;;;16.67;4.43;;;;;;;12.36;49.49;100044.66;5563385;25;20028;-82
2024/04/20 07:33:23;;;;;;;10.50;4.77;;;;;;;12.51;49.49;100037.69;5562468;25;20024;-78
2024/04/20 07:36:18;;;;;;;10.10;4.35;;;;;;;12.83;48.45;100044.88;5552981;25;20029;-80
2024/04/20 07:39:10;;;;;;;12.90;3.95;;;;;;;12.92;44.66;100050.19;5498918;26;20033;-80
2024/04/20 07:42:06;;;;;;;5.70;3.40;;;;;;;12.91;42.59;100059.50;5523372;26;20386;-79
2024/04/20 07:44:58;;;;;;;5.47;3.17;;;;;;;13.04;40.47;100058.34;5524188;26;20025;-79
2024/04/20 07:47:53;;;;;;;8.68;2.97;;;;;;;13.03;39.36;100049.34;5498861;26;20033;-76
2024/04/20 07:50:45;;;;;;;4.67;2.80;;;;;;;13.18;40.85;100061.50;5523659;26;20498;-80
2024/04/20 07:53:39;;;;;;;6.65;3.42;;;;;;;12.95;41.78;100065.88;5511331;25;20033;-79
2024/04/20 07:56:34;;;;;;;18.03;4.27;;;;;;;12.86;41.25;100050.44;5521225;25;20150;-79
2024/04/20 07:59:29;;;;;;;11.63;3.00;;;;;;;12.91;41.24;100063.03;5516008;25;20296;-81
2024/04/20 08:02:24;;;;;;;8.52;2.83;;;;;;;12.96;41.80;100076.44;5502351;25;20494;-81
2024/04/20 08:05:18;;;;;;;15.20;3.73;;;;;;;13.20;40.62;100081.84;5527329;25;20031;-80
2024/04/20 08:08:13;;;;;;;7.38;2.83;;;;;;;13.42;41.30;100075.00;5543408;25;20285;-78
2024/04/20 08:11:10;;;;;;;8.35;2.60;;;;;;;13.24;41.51;100079.22;5561004;25;20749;-80
2024/04/20 08:14:03;;;;;;;4.32;2.95;;;;;;;13.22;42.51;100079.56;5512977;25;20040;-82
2024/04/20 08:16:58;;;;;;;11.48;2.92;;;;;;;13.27;42.72;100081.22;5545934;25;20029;-82
2024/04/20 08:19:52;;;;;;;5.00;2.13;;;;;;;13.70;42.83;100088.63;5533325;25;20032;-81
2024/04/20 08:22:47;;;;;;;3.93;2.07;;;;;;;14.03;42.76;100093.75;5500705;26;20888;-84
2024/04/20 08:25:41;;;;;;;5.63;2.40;;;;;;;14.05;42.12;100083.25;5514126;25;20270;-82
2024/04/20 08:28:36;;;;;;;2.63;1.93;;;;;;;14.34;42.40;100096.47;5518657;25;20044;-82
2024/04/20 08:31:28;;;;;;;3.97;2.28;;;;;;;14.37;41.71;100100.47;5525761;26;20642;-81
2024/04/20 08:34:23;;;;;;;6.80;3.15;;;;;;;14.38;42.40;100091.91;5526338;26;20382;-81
2024/04/20 08:37:18;;;;;;;5.85;2.72;;;;;;;14.87;42.46;100091.41;5499579;26;20021;-81
2024/04/20 08:40:14;;;;;;;4.20;2.83;;;;;;;14.88;42.42;100087.53;5526269;26;20033;-81
2024/04/20 08:43:09;;;;;;;6.82;2.80;;;;;;;15.01;41.97;100099.94;5524842;26;20390;-81
2024/04/20 08:45:57;;;;;;;9.70;2.93;;;;;;;15.09;41.74;100101.66;5525231;26;20378;-83
2024/04/20 08:48:49;;;;;;;5.80;3.42;;;;;;;14.93;42.05;100112.66;5525220;26;20281;-80
2024/04/20 08:51:44;;;;;;;8.05;3.58;;;;;;;14.75;42.46;100107.97;5525086;26;20013;-81
2024/04/20 08:54:40;;;;;;;6.10;2.38;;;;;;;14.74;43.31;100106.38;5524863;26;20033;-81
2024/04/20 08:57:35;;;;;;;5.60;2.97;;;;;;;14.63;43.59;100113.56;5524523;26;20026;-82
2024/04/20 09:00:28;;;;;;;7.20;3.00;;;;;;;14.68;44.15;100116.03;5526148;26;20018;-82
2024/04/20 09:03:21;;;;;;;5.57;3.22;;;;;;;14.92;43.71;100122.06;5523636;26;20025;-81
2024/04/20 09:06:16;;;;;;;4.75;2.60;;;;;;;14.31;44.40;100085.44;5524038;26;20021;-81
2024/04/20 09:09:12;;;;;;;4.30;2.20;;;;;;;14.92;43.45;100115.78;5492893;26;20390;-81
2024/04/20 09:12:01;;;;;;;3.35;2.10;;;;;;;15.29;42.91;100135.31;5464049;26;20644;-81
2024/04/20 09:14:56;;;;;;;5.63;2.20;;;;;;;15.56;42.97;100111.59;5516912;26;20029;-80
2024/04/20 09:17:50;;;;;;;3.42;1.52;;;;;;;15.65;43.05;100136.81;5501159;26;20030;-81
2024/04/20 09:20:46;;;;;;;3.30;1.60;;;;;;;15.92;41.52;100126.75;5526816;26;20045;-81
2024/04/20 09:23:41;;;;;;;7.53;2.63;;;;;;;16.08;41.33;100139.19;5525733;26;20037;-82
2024/04/20 09:26:33;;;;;;;2.63;1.40;;;;;;;16.44;40.84;100134.28;5527078;25;20029;-81
2024/04/20 09:29:27;;;;;;;3.42;2.08;;;;;;;16.27;41.27;100147.34;5526308;26;20277;-81
2024/04/20 09:32:23;;;;;;;5.70;2.72;;;;;;;16.39;41.05;100137.34;5527416;25;20025;-81
2024/04/20 09:35:16;;;;;;;4.47;1.60;;;;;;;16.22;41.18;100124.91;5525470;26;20429;-80
2024/04/20 09:38:10;;;;;;;17.67;2.55;;;;;;;16.36;40.66;100129.81;5526623;26;20021;-81
2024/04/20 09:41:04;;;;;;;4.53;1.75;;;;;;;16.91;39.40;100120.88;5499995;26;20033;-80
2024/04/20 09:43:59;;;;;;;6.85;1.70;;;;;;;17.30;38.75;100137.06;5499695;26;20025;-82
2024/04/20 09:46:53;;;;;;;4.28;1.48;;;;;;;17.52;39.11;100136.91;5525492;26;20033;-81
2024/04/20 09:49:52;;;;;;;8.68;2.17;;;;;;;17.14;39.93;100128.22;5506959;25;20033;-81
2024/04/20 09:53:12;;;;;;;5.25;1.70;;;;;;;17.25;38.62;100137.41;5487677;26;20030;-80
2024/04/20 09:56:02;;;;;;;4.25;2.17;;;;;;;17.08;38.11;100125.00;5488883;26;20030;-81
2024/04/20 09:58:55;;;;;;;5.80;1.70;;;;;;;17.76;36.50;100132.91;5490731;26;20026;-81
2024/04/20 10:01:50;;;;;;;2.10;1.35;;;;;;;17.80;36.63;100127.44;5487893;26;20030;-80
2024/04/20 10:04:43;;;;;;;3.08;1.70;;;;;;;17.92;36.09;100118.91;5488623;26;20026;-81
2024/04/20 10:07:39;;;;;;;7.68;2.53;;;;;;;18.28;36.42;100122.75;5463501;26;20014;-81
2024/04/20 10:10:31;;;;;;;11.32;1.55;;;;;;;18.52;34.86;100122.16;5487747;26;20015;-81
2024/04/20 10:13:26;;;;;;;4.28;1.95;;;;;;;19.03;33.94;100129.56;5488105;26;20025;-82
2024/04/20 10:16:19;;;;;;;1.80;0.82;;;;;;;18.97;32.11;100122.84;5496549;25;20006;-81
2024/04/20 10:19:11;;;;;;;2.38;0.73;;;;;;;18.97;31.46;100120.06;5483972;25;20033;-80
2024/04/20 10:22:06;;;;;;;3.60;1.10;;;;;;;18.84;32.64;100121.59;5544963;25;20063;-81
2024/04/20 10:25:00;;;;;;;2.13;1.23;;;;;;;19.25;33.36;100122.19;5485680;25;20006;-81
2024/04/20 10:27:55;;;;;;;2.75;1.38;;;;;;;19.23;30.99;100119.81;5488054;25;20382;-82
2024/04/20 10:31:00;;;;;;;3.30;1.00;;;;;;;19.49;30.87;100111.25;5510442;25;20026;-82
2024/04/20 10:33:58;;;;;;;5.40;1.48;;;;;;;19.54;29.99;100115.59;5520629;26;20029;-82
2024/04/20 10:37:02;;;;;;;8.90;1.50;;;;;;;19.30;31.79;100130.09;5515054;25;20049;-82
2024/04/20 10:39:54;;;;;;;2.47;1.63;;;;;;;19.43;31.41;100118.31;5505455;25;20026;-80
2024/04/20 10:42:46;;;;;;;2.22;1.10;;;;;;;19.72;29.96;100129.44;5518360;25;20389;-83
2024/04/20 10:45:44;;;;;;;2.55;1.20;;;;;;;19.82;30.30;100128.66;5500456;25;20492;-80
2024/04/20 10:48:34;;;;;;;1.92;1.00;;;;;;;19.90;27.41;100128.28;5497483;25;20038;-80
2024/04/20 10:51:28;;;;;;;4.78;0.90;;;;;;;20.13;29.99;100125.16;5498384;25;20029;-81
2024/04/20 10:54:22;;;;;;;2.35;0.93;;;;;;;20.57;29.54;100126.75;5515812;25;20107;-79
2024/04/20 10:57:14;;;;;;;0.98;0.65;;;;;;;19.98;27.16;100116.06;5532070;25;20048;-80
2024/04/20 11:00:07;;;;;;;1.30;0.88;;;;;;;20.22;25.47;100124.75;5497653;25;20484;-81
2024/04/20 11:03:01;;;;;;;4.85;0.88;;;;;;;20.11;25.64;100127.53;5486265;25;20043;-78
2024/04/20 11:05:57;;;;;;;1.77;0.65;;;;;;;20.65;23.69;100142.13;5515431;25;20056;-80
2024/04/20 11:08:52;;;;;;;3.50;0.60;;;;;;;20.33;22.85;100136.63;5493238;26;20022;-80
2024/04/20 11:11:46;;;;;;;0.73;0.40;;;;;;;20.80;23.64;100132.63;5491252;26;20030;-80
2024/04/20 11:14:41;;;;;;;2.35;0.35;;;;;;;20.36;23.12;100139.41;5528042;25;20025;-79
2024/04/20 11:17:38;;;;;;;3.17;0.60;;;;;;;20.34;25.17;100150.03;5474289;25;20037;-80
2024/04/20 11:20:33;;;;;;;4.68;1.30;;;;;;;20.46;25.87;100138.59;5527579;26;20029;-79
2024/04/20 11:23:26;;;;;;;6.00;0.73;;;;;;;20.18;27.00;100137.75;5506860;25;20503;-79
2024/04/20 11:26:21;;;;;;;2.58;1.20;;;;;;;19.83;28.43;100152.31;5524358;25;20037;-80
2024/04/20 11:29:16;;;;;;;12.00;0.95;;;;;;;18.79;24.99;100145.56;5510935;25;20042;-80
2024/04/20 11:32:20;;;;;;;2.17;0.90;;;;;;;18.49;25.30;100146.91;5480327;25;20487;-82
2024/04/20 11:35:17;;;;;;;3.38;0.40;;;;;;;18.55;24.93;100143.44;5526180;25;20037;-80
2024/04/20 11:38:09;;;;;;;;;;;;;;;18.91;27.33;100149.97;5500524;26;20037;-81
2024/04/20 11:41:01;;;;;;;;;;;;;;;19.35;26.64;100146.25;5525288;26;19955;-81
2024/04/20 11:43:53;;;;;;;;;;;;;;;19.48;25.72;100151.03;5498121;26;19940;-81
2024/04/20 11:46:45;;;;;;;;;;;;;;;19.57;28.21;100159.75;5523784;25;19966;-79
2024/04/20 11:49:37;;;;;;;;;;;;;;;19.52;28.17;100162.88;5524497;26;19955;-81
2024/04/20 11:55:36;;;;;;;;;;;;;;;19.60;28.45;100183.81;5512918;25;19948;-81
2024/04/20 11:58:25;;;;;;;;;;;;;;;19.55;24.95;100180.63;5502414;25;19952;-81
2024/04/20 12:01:16;;;;;;;;;;;;;;;19.56;25.45;100179.44;5523496;25;19947;-81
2024/04/20 12:04:08;;;;;;;;;;;;;;;19.43;26.42;100180.94;5514941;25;19955;-83
2024/04/20 12:07:03;;;;;;;;;;;;;;;19.25;24.06;100175.31;5509787;25;19948;-81
2024/04/20 12:09:55;;;;;;;;;;;;;;;19.20;23.38;100175.69;5546140;25;19947;-81
2024/04/20 12:12:47;;;;;;;;;;;;;;;19.08;23.22;100168.56;5487772;26;19952;-81
2024/04/20 12:15:39;;;;;;;;;;;;;;;18.98;23.18;100174.81;5511915;26;19955;-81
2024/04/20 12:18:31;;;;;;;;;;;;;;;18.88;22.99;100169.22;5507350;25;19967;-80
2024/04/20 12:21:23;;;;;;;;;;;;;;;18.78;22.89;100165.25;5535045;25;19947;-81
2024/04/20 12:24:15;;;;;;;;;;;;;;;18.70;23.43;100169.91;5504736;25;19975;-80
2024/04/20 12:27:07;;;;;;;;;;;;;;;18.66;23.11;100169.09;5527482;25;19952;-81
2024/04/20 12:30:02;;;;;;;;;;;;;;;18.65;23.39;100184.03;5517665;25;19951;-81
2024/04/20 12:32:55;;;;;;;;;;;;;;;18.68;23.44;100188.78;5520254;25;19951;-81
2024/04/20 12:35:47;;;;;;;;;;;;;;;18.62;22.92;100201.31;5500132;25;19952;-81
2024/04/20 12:38:32;;;;;;;;;;;;;;;18.54;23.38;100207.94;5499483;25;19948;-84
2024/04/20 12:41:21;;;;;;;;;;;;;;;18.55;23.38;100212.28;5513230;25;19947;-82
2024/04/20 12:44:10;;;;;;;;;;;;;;;18.38;24.79;100194.44;5496531;25;19959;-82
2024/04/20 12:47:02;;;;;;;;;;;;;;;18.46;26.12;100214.53;5511772;25;19960;-80
2024/04/20 12:49:52;;;;;;;;;;;;;;;18.35;27.56;100227.41;5489266;26;19948;-81
2024/04/20 12:52:44;;;;;;;;;;;;;;;18.25;28.38;100225.34;5503166;25;20289;-81
2024/04/20 12:55:36;;;;;;;;;;;;;;;18.06;28.27;100214.53;5486063;26;19952;-82
2024/04/20 12:58:28;;;;;;;;;;;;;;;18.00;28.18;100216.84;5486980;25;19948;-82
2024/04/20 13:01:20;;;;;;;;;;;;;;;17.97;27.83;100217.59;5518767;25;19959;-82
2024/04/20 13:04:08;;;;;;;;;;;;;;;17.87;28.03;100210.81;5489894;25;19948;-81
2024/04/20 13:07:00;;;;;;;;;;;;;;;17.81;27.85;100209.56;5541516;25;20293;-83
2024/04/20 13:09:56;;;;;;;;;;;;;;;17.65;28.56;100203.50;5514134;25;19947;-81
2024/04/20 13:12:48;;;;;;;;;;;;;;;17.52;29.52;100196.63;5511429;26;20400;-82
2024/04/20 13:15:35;;;;;;;;;;;;;;;17.42;29.66;100194.56;5507220;25;19952;-80
2024/04/20 13:18:27;;;;;;;;;;;;;;;17.34;30.20;100187.38;5515717;25;19951;-81
2024/04/20 13:21:19;;;;;;;;;;;;;;;17.30;30.32;100186.53;5548501;25;19951;-82
2024/04/20 13:24:08;;;;;;;;;;;;;;;17.28;30.16;100184.16;5532836;25;19951;-81
2024/04/20 13:27:00;;;;;;;;;;;;;;;17.26;30.50;100181.00;5509173;25;19947;-81
2024/04/20 13:29:47;;;;;;;;;;;;;;;17.28;31.04;100172.34;5512143;25;20413;-81
2024/04/20 13:32:37;;;;;;;;;;;;;;;17.20;31.77;100168.75;5511076;25;19952;-80
2024/04/20 13:35:29;;;;;;;;;;;;;;;17.18;31.73;100170.28;5525586;25;19947;-81
2024/04/20 13:38:21;;;;;;;;;;;;;;;17.15;32.20;100177.31;5522164;25;19952;-82
2024/04/20 13:41:10;;;;;;;;;;;;;;;17.08;32.81;100169.75;5494857;25;19951;-81
2024/04/20 13:44:01;;;;;;;;;;;;;;;17.13;32.14;100167.84;5486444;25;19947;-81
2024/04/20 13:46:54;;;;;;;;;;;;;;;17.07;32.82;100168.16;5522884;25;19946;-81
2024/04/20 13:49:44;;;;;;;;;;;;;;;17.08;33.20;100186.25;5522864;26;20401;-80